createdAt,value
2018-09-19T00:00:06.013Z,5.63
2018-09-19T00:02:34.493Z,6.77
2018-09-19T00:05:03.002Z,8.90
2018-09-19T00:07:31.523Z,5.73
2018-09-19T00:10:00.784Z,9.00
2018-09-19T00:12:29.306Z,5.23
2018-09-19T00:14:57.958Z,7.07
2018-09-19T00:17:26.488Z,6.40
2018-09-19T00:19:55.593Z,8.10
2018-09-19T00:22:24.157Z,6.77
2018-09-19T00:24:53.103Z,4.50
2018-09-19T00:27:21.645Z,5.70
2018-09-19T00:29:50.606Z,8.33
2018-09-19T00:32:19.105Z,8.60
2018-09-19T00:34:47.910Z,6.57
2018-09-19T00:37:16.577Z,8.17
2018-09-19T00:39:45.196Z,6.57
2018-09-19T00:42:13.967Z,6.80
2018-09-19T00:44:42.539Z,9.40
2018-09-19T00:47:11.403Z,9.17
2018-09-19T00:49:39.866Z,9.23
2018-09-19T00:52:08.391Z,7.57
2018-09-19T00:54:36.903Z,8.33
2018-09-19T00:57:05.773Z,9.20
2018-09-19T00:59:34.405Z,10.57
2018-09-19T01:02:03.215Z,9.33
2018-09-19T01:04:31.816Z,9.07
2018-09-19T01:07:00.409Z,10.83
2018-09-19T01:09:28.987Z,9.87
2018-09-19T01:11:57.469Z,8.40
2018-09-19T01:14:26.119Z,11.87
2018-09-19T01:16:54.626Z,8.17
2018-09-19T01:19:23.391Z,9.10
2018-09-19T01:21:52.005Z,10.63
2018-09-19T01:24:20.555Z,10.20
2018-09-19T01:26:49.049Z,10.00
2018-09-19T01:29:17.650Z,13.60
2018-09-19T01:31:46.303Z,10.13
2018-09-19T01:34:14.866Z,8.90
2018-09-19T01:36:43.664Z,9.80
2018-09-19T01:39:12.185Z,10.30
2018-09-19T01:41:40.691Z,9.67
2018-09-19T01:44:09.686Z,9.20
2018-09-19T01:46:38.261Z,11.10
2018-09-19T01:49:06.901Z,11.47
2018-09-19T01:51:35.582Z,7.60
2018-09-19T01:54:04.426Z,11.90
2018-09-19T01:56:33.078Z,11.13
2018-09-19T01:59:01.543Z,10.67
2018-09-19T02:01:30.070Z,9.93
2018-09-19T02:03:58.689Z,13.73
2018-09-19T02:06:27.257Z,8.40
2018-09-19T02:08:56.221Z,11.80
2018-09-19T02:11:24.791Z,11.87
2018-09-19T02:13:53.360Z,12.67
2018-09-19T02:16:22.001Z,9.83
2018-09-19T02:18:50.702Z,8.10
2018-09-19T02:21:19.197Z,11.10
2018-09-19T02:23:48.052Z,9.13
2018-09-19T02:26:16.669Z,10.60
2018-09-19T02:28:45.618Z,11.30
2018-09-19T02:31:14.126Z,10.50
2018-09-19T02:33:42.730Z,13.10
2018-09-19T02:36:11.315Z,9.20
2018-09-19T02:38:39.866Z,11.50
2018-09-19T02:41:08.485Z,12.27
2018-09-19T02:43:36.997Z,14.97
2018-09-19T02:46:05.805Z,13.80
2018-09-19T02:48:34.394Z,13.03
2018-09-19T02:51:02.929Z,11.30
2018-09-19T02:53:31.384Z,12.70
2018-09-19T02:55:59.853Z,11.60
2018-09-19T02:58:28.531Z,11.33
2018-09-19T03:00:57.102Z,13.60
2018-09-19T03:03:25.594Z,7.87
2018-09-19T03:05:54.258Z,10.97
2018-09-19T03:08:22.818Z,8.57
2018-09-19T03:10:51.330Z,7.53
2018-09-19T03:13:20.149Z,10.30
2018-09-19T03:15:48.650Z,7.60
2018-09-19T03:18:17.132Z,9.73
2018-09-19T03:20:45.823Z,9.37
2018-09-19T03:23:14.304Z,7.07
2018-09-19T03:25:43.212Z,8.90
2018-09-19T03:28:11.692Z,9.00
2018-09-19T03:30:40.141Z,10.67
2018-09-19T03:33:08.605Z,11.07
2018-09-19T03:35:37.115Z,10.40
2018-09-19T03:38:05.681Z,11.87
2018-09-19T03:40:34.573Z,11.03
2018-09-19T03:43:03.486Z,9.80
2018-09-19T03:45:32.299Z,11.23
2018-09-19T03:48:00.796Z,8.77
2018-09-19T03:50:29.429Z,11.33
2018-09-19T03:52:58.245Z,10.10
2018-09-19T03:55:26.749Z,9.03
2018-09-19T03:57:55.260Z,10.33
2018-09-19T04:00:24.173Z,9.30
2018-09-19T04:02:52.814Z,10.67
2018-09-19T04:05:21.450Z,9.87
2018-09-19T04:07:50.081Z,10.80
2018-09-19T04:10:18.606Z,16.27
2018-09-19T04:12:47.317Z,9.03
2018-09-19T04:15:15.890Z,9.33
2018-09-19T04:17:44.714Z,10.90
2018-09-19T04:20:13.164Z,16.53
2018-09-19T04:22:41.954Z,9.93
2018-09-19T04:25:10.751Z,11.87
2018-09-19T04:27:39.206Z,8.73
2018-09-19T04:30:08.006Z,12.10
2018-09-19T04:32:36.625Z,11.50
2018-09-19T04:35:05.290Z,13.23
2018-09-19T04:37:33.791Z,14.53
2018-09-19T04:40:02.303Z,15.17
2018-09-19T04:42:30.961Z,22.70
2018-09-19T04:44:59.567Z,24.70
2018-09-19T04:47:27.996Z,20.03
2018-09-19T04:49:56.475Z,22.97
2018-09-19T04:52:24.945Z,21.57
2018-09-19T04:54:53.396Z,14.83
2018-09-19T04:57:21.922Z,13.80
2018-09-19T04:59:50.417Z,15.77
2018-09-19T05:02:19.049Z,15.13
2018-09-19T05:04:47.537Z,14.53
2018-09-19T05:07:16.092Z,13.77
2018-09-19T05:09:44.702Z,10.87
2018-09-19T05:12:13.226Z,19.23
2018-09-19T05:14:41.845Z,15.07
2018-09-19T05:17:11.341Z,10.87
2018-09-19T05:19:39.848Z,11.97
2018-09-19T05:22:08.581Z,13.23
2018-09-19T05:24:37.440Z,9.83
2018-09-19T05:27:05.903Z,13.83
2018-09-19T05:29:34.553Z,12.53
2018-09-19T05:32:03.137Z,12.33
2018-09-19T05:34:31.667Z,11.03
2018-09-19T05:37:00.135Z,14.53
2018-09-19T05:39:28.678Z,15.40
2018-09-19T05:41:57.197Z,20.33
2018-09-19T05:44:25.686Z,20.37
2018-09-19T05:46:54.416Z,22.80
2018-09-19T05:49:23.186Z,17.27
2018-09-19T05:51:51.664Z,13.77
2018-09-19T05:54:20.222Z,13.83
2018-09-19T05:56:48.685Z,19.63
2018-09-19T05:59:17.160Z,13.40
2018-09-19T06:01:45.786Z,13.47
2018-09-19T06:04:14.401Z,17.93
2018-09-19T06:06:43.287Z,16.90
2018-09-19T06:09:12.271Z,18.83
2018-09-19T06:11:40.908Z,9.93
2018-09-19T06:14:09.711Z,18.07
2018-09-19T06:16:38.405Z,15.33
2018-09-19T06:19:07.052Z,15.00
2018-09-19T06:21:35.559Z,14.53
2018-09-19T06:24:04.181Z,12.57
2018-09-19T06:26:32.661Z,10.60
2018-09-19T06:29:01.237Z,14.73
2018-09-19T06:31:30.050Z,10.03
2018-09-19T06:33:58.550Z,13.47
2018-09-19T06:36:27.009Z,14.00
2018-09-19T06:38:56.037Z,11.87
2018-09-19T06:41:24.570Z,10.30
2018-09-19T06:43:53.238Z,12.93
2018-09-19T06:46:21.760Z,12.73
2018-09-19T06:48:50.267Z,11.93
2018-09-19T06:51:18.812Z,14.17
2018-09-19T06:53:47.423Z,11.93
2018-09-19T06:56:16.048Z,14.77
2018-09-19T06:58:44.737Z,12.33
2018-09-19T07:01:13.351Z,17.37
2018-09-19T07:03:41.921Z,10.93
2018-09-19T07:06:10.477Z,12.83
2018-09-19T07:08:39.087Z,12.10
2018-09-19T07:11:07.661Z,11.50
2018-09-19T07:13:36.383Z,16.70
2018-09-19T07:16:04.914Z,12.40
2018-09-19T07:18:33.411Z,16.03
2018-09-19T07:21:02.065Z,11.10
2018-09-19T07:23:30.681Z,14.87
2018-09-19T07:25:59.263Z,10.57
2018-09-19T07:28:27.809Z,11.70
2018-09-19T07:30:56.374Z,8.03
2018-09-19T07:33:25.011Z,12.87
2018-09-19T07:35:55.863Z,8.77
2018-09-19T07:38:24.541Z,10.67
2018-09-19T07:40:53.074Z,11.57
2018-09-19T07:43:21.741Z,8.50
2018-09-19T07:45:50.870Z,7.97
2018-09-19T07:48:19.468Z,11.43
2018-09-19T07:50:47.990Z,10.70
2018-09-19T07:53:16.615Z,8.13
2018-09-19T07:55:47.349Z,6.97
2018-09-19T07:58:15.901Z,6.50
2018-09-19T08:00:44.645Z,7.97
2018-09-19T08:03:13.139Z,9.03
2018-09-19T08:05:41.734Z,7.80
2018-09-19T08:08:10.324Z,9.40
2018-09-19T08:10:38.779Z,8.37
2018-09-19T08:13:07.186Z,10.50
2018-09-19T08:15:35.776Z,8.83
2018-09-19T08:18:04.515Z,10.50
2018-09-19T08:20:33.294Z,6.83
2018-09-19T08:23:02.042Z,6.90
2018-09-19T08:25:30.922Z,8.57
2018-09-19T08:28:00.053Z,10.87
2018-09-19T08:30:28.738Z,5.47
2018-09-19T08:32:57.366Z,7.30
2018-09-19T08:35:26.025Z,8.37
2018-09-19T08:37:54.829Z,6.07
2018-09-19T08:40:23.471Z,8.77
2018-09-19T08:42:52.247Z,8.77
2018-09-19T08:45:20.827Z,7.10
2018-09-19T08:47:49.498Z,7.07
2018-09-19T08:50:18.346Z,6.03
2018-09-19T08:52:47.026Z,7.27
2018-09-19T08:55:15.757Z,8.37
2018-09-19T08:57:44.422Z,9.00
2018-09-19T09:00:13.145Z,7.33
2018-09-19T09:02:41.970Z,9.43
2018-09-19T09:05:10.528Z,7.00
2018-09-19T09:07:39.102Z,9.20
2018-09-19T09:10:07.841Z,7.73
2018-09-19T09:12:36.520Z,4.97
2018-09-19T09:15:05.206Z,6.60
2018-09-19T09:17:35.843Z,5.13
2018-09-19T09:20:04.597Z,4.80
2018-09-19T09:22:33.337Z,7.13
2018-09-19T09:25:01.931Z,9.33
2018-09-19T09:27:30.645Z,7.37
2018-09-19T09:29:59.301Z,6.70
2018-09-19T09:32:27.900Z,5.17
2018-09-19T09:34:56.644Z,4.10
2018-09-19T09:37:25.206Z,6.33
2018-09-19T09:39:53.771Z,10.50
2018-09-19T09:42:22.316Z,5.40
2018-09-19T09:44:51.269Z,3.90
2018-09-19T09:47:19.945Z,4.47
2018-09-19T09:49:48.670Z,5.50
2018-09-19T09:52:17.333Z,6.33
2018-09-19T09:54:45.881Z,8.87
2018-09-19T09:57:14.550Z,5.10
2018-09-19T09:59:43.152Z,3.90
2018-09-19T10:02:11.806Z,6.30
2018-09-19T10:04:40.562Z,3.87
2018-09-19T10:07:09.383Z,6.03
2018-09-19T10:09:37.954Z,3.43
2018-09-19T10:12:06.641Z,6.23
2018-09-19T10:14:35.264Z,7.20
2018-09-19T10:17:03.834Z,3.70
2018-09-19T10:19:32.393Z,4.00
2018-09-19T10:22:01.245Z,6.17
2018-09-19T10:24:29.893Z,5.43
2018-09-19T10:26:58.513Z,5.87
2018-09-19T10:29:27.429Z,4.40
2018-09-19T10:31:56.136Z,4.20
2018-09-19T10:34:24.784Z,5.87
2018-09-19T10:36:53.438Z,8.13
2018-09-19T10:39:22.098Z,6.20
2018-09-19T10:41:50.865Z,5.97
2018-09-19T10:44:19.541Z,6.12
2018-09-19T10:46:48.332Z,5.35
2018-09-19T10:49:17.151Z,4.53
2018-09-19T10:51:46.921Z,5.05
2018-09-19T10:54:15.576Z,4.87
2018-09-19T10:56:45.346Z,6.80
2018-09-19T10:59:13.846Z,5.05
2018-09-19T11:01:42.635Z,4.13
2018-09-19T11:04:11.232Z,5.60
2018-09-19T11:06:39.820Z,5.87
2018-09-19T11:09:10.287Z,5.45
2018-09-19T11:11:39.410Z,4.10
2018-09-19T11:14:08.154Z,4.43
2018-09-19T11:16:36.738Z,7.37
2018-09-19T11:19:06.283Z,5.85
2018-09-19T11:21:34.984Z,5.00
2018-09-19T11:24:03.766Z,5.97
2018-09-19T11:26:32.472Z,5.35
2018-09-19T11:29:01.272Z,5.65
2018-09-19T11:31:29.894Z,4.58
2018-09-19T11:33:58.526Z,6.33
2018-09-19T11:36:27.152Z,5.33
2018-09-19T11:38:56.019Z,6.50
2018-09-19T11:41:24.635Z,4.50
2018-09-19T11:43:53.531Z,5.80
2018-09-19T11:46:22.152Z,4.58
2018-09-19T11:48:50.787Z,5.23
2018-09-19T11:51:19.567Z,3.65
2018-09-19T11:53:48.154Z,4.60
2018-09-19T11:56:16.843Z,4.58
2018-09-19T11:58:46.549Z,4.28
2018-09-19T12:01:15.759Z,5.87
2018-09-19T12:03:44.316Z,6.35
2018-09-19T12:06:12.929Z,6.10
2018-09-19T12:08:42.510Z,5.47
2018-09-19T12:11:11.084Z,4.10
2018-09-19T12:13:39.686Z,4.70
2018-09-19T12:16:08.232Z,6.12
2018-09-19T12:18:36.822Z,6.30
2018-09-19T12:21:05.925Z,4.73
2018-09-19T12:23:34.531Z,6.45
2018-09-19T12:26:03.898Z,5.00
2018-09-19T12:28:32.542Z,6.17
2018-09-19T12:31:01.150Z,6.73
2018-09-19T12:33:29.822Z,4.17
2018-09-19T12:35:58.331Z,5.33
2018-09-19T12:38:26.918Z,5.63
2018-09-19T12:40:55.514Z,5.28
2018-09-19T12:43:24.743Z,5.22
2018-09-19T12:45:53.341Z,5.60
2018-09-19T12:48:22.114Z,4.87
2018-09-19T12:50:50.895Z,6.08
2018-09-19T12:53:22.814Z,4.87
2018-09-19T12:55:53.045Z,3.83
2018-09-19T12:58:21.635Z,7.60
2018-09-19T13:00:50.462Z,6.17
2018-09-19T13:03:19.220Z,4.45
2018-09-19T13:05:47.904Z,4.83
2018-09-19T13:08:16.633Z,5.67
2018-09-19T13:10:45.162Z,5.42
2018-09-19T13:13:13.845Z,5.70
2018-09-19T13:15:42.737Z,5.55
2018-09-19T13:18:11.370Z,5.50
2018-09-19T13:20:39.905Z,3.77
2018-09-19T13:23:08.610Z,3.80
2018-09-19T13:25:37.110Z,6.12
2018-09-19T13:28:05.845Z,4.60
2018-09-19T13:30:34.387Z,3.87
2018-09-19T13:33:02.995Z,4.70
2018-09-19T13:35:31.534Z,6.60
2018-09-19T13:38:00.181Z,4.22
2018-09-19T13:40:28.958Z,6.22
2018-09-19T13:42:57.575Z,4.62
2018-09-19T13:45:26.176Z,4.78
2018-09-19T13:47:54.811Z,5.17
2018-09-19T13:50:40.356Z,3.62
2018-09-19T13:53:09.365Z,4.83
2018-09-19T13:55:38.038Z,4.15
2018-09-19T13:58:06.579Z,3.87
2018-09-19T14:00:35.338Z,5.50
2018-09-19T14:03:04.026Z,5.60
2018-09-19T14:05:32.746Z,4.12
2018-09-19T14:08:01.385Z,3.20
2018-09-19T14:10:29.943Z,5.15
2018-09-19T14:12:58.545Z,4.97
2018-09-19T14:15:27.206Z,5.90
2018-09-19T14:17:55.759Z,5.00
2018-09-19T14:20:24.547Z,3.60
2018-09-19T14:22:53.113Z,4.50
2018-09-19T14:25:21.662Z,4.30
2018-09-19T14:27:50.179Z,3.90
2018-09-19T14:30:18.937Z,3.87
2018-09-19T14:32:47.513Z,3.77
2018-09-19T14:35:17.251Z,4.35
2018-09-19T14:37:45.970Z,3.85
2018-09-19T14:40:14.559Z,3.77
2018-09-19T14:42:43.218Z,3.90
2018-09-19T14:45:11.943Z,6.17
2018-09-19T14:47:40.676Z,3.80
2018-09-19T14:50:09.486Z,3.95
2018-09-19T14:52:38.066Z,4.65
2018-09-19T14:55:06.613Z,3.92
2018-09-19T14:57:35.362Z,4.47
2018-09-19T15:00:04.087Z,3.70
2018-09-19T15:02:32.706Z,4.33
2018-09-19T15:05:01.370Z,3.50
2018-09-19T15:07:29.889Z,3.72
2018-09-19T15:09:58.536Z,6.80
2018-09-19T15:12:27.146Z,6.28
2018-09-19T15:14:55.706Z,3.67
2018-09-19T15:17:24.362Z,4.60
2018-09-19T15:19:52.989Z,6.20
2018-09-19T15:22:21.704Z,4.22
2018-09-19T15:24:50.396Z,4.87
2018-09-19T15:27:19.230Z,4.58
2018-09-19T15:29:47.916Z,5.47
2018-09-19T15:32:16.711Z,4.87
2018-09-19T15:34:45.294Z,4.95
2018-09-19T15:37:13.946Z,3.92
2018-09-19T15:39:42.513Z,4.58
2018-09-19T15:42:11.088Z,4.15
2018-09-19T15:44:39.671Z,7.97
2018-09-19T15:47:08.353Z,3.80
2018-09-19T15:49:36.863Z,7.15
2018-09-19T15:52:05.537Z,4.80
2018-09-19T15:54:34.103Z,4.00
2018-09-19T15:57:02.766Z,4.28
2018-09-19T15:59:31.532Z,5.78
2018-09-19T16:02:00.061Z,6.33
2018-09-19T16:04:28.610Z,4.83
2018-09-19T16:06:57.308Z,5.47
2018-09-19T16:09:26.019Z,4.00
2018-09-19T16:14:28.045Z,4.12
2018-09-19T16:16:56.626Z,3.85
2018-09-19T16:19:25.292Z,5.53
2018-09-19T16:21:53.802Z,5.35
2018-09-19T16:24:22.399Z,4.45
2018-09-19T16:26:51.066Z,4.50
2018-09-19T16:29:19.666Z,5.90
2018-09-19T16:31:48.326Z,5.17
2018-09-19T16:34:16.812Z,5.00
2018-09-19T16:36:45.526Z,5.08
2018-09-19T16:39:14.225Z,4.97
2018-09-19T16:41:43.305Z,4.95
2018-09-19T16:44:11.977Z,6.67
2018-09-19T16:46:41.189Z,9.13
2018-09-19T16:49:10.529Z,5.37
2018-09-19T16:51:39.145Z,4.97
2018-09-19T16:54:08.027Z,6.42
2018-09-19T16:56:36.594Z,4.70
2018-09-19T16:59:05.418Z,4.92
2018-09-19T17:01:33.972Z,5.95
2018-09-19T17:04:02.562Z,4.10
2018-09-19T17:06:31.255Z,3.80
2018-09-19T17:08:59.964Z,6.63
2018-09-19T17:11:28.576Z,4.87
2018-09-19T17:13:57.170Z,4.30
2018-09-19T17:16:25.657Z,5.80
2018-09-19T17:18:54.436Z,4.60
2018-09-19T17:21:23.129Z,3.93
2018-09-19T17:23:52.013Z,8.57
2018-09-19T17:26:20.708Z,6.20
2018-09-19T17:28:49.368Z,5.80
2018-09-19T17:31:17.913Z,5.10
2018-09-19T17:33:46.655Z,4.40
2018-09-19T17:36:15.308Z,3.50
2018-09-19T17:38:43.850Z,5.43
2018-09-19T17:41:12.483Z,6.60
2018-09-19T17:43:41.188Z,5.60
2018-09-19T17:46:09.749Z,5.73
2018-09-19T17:48:38.354Z,5.30
2018-09-19T17:51:07.115Z,5.20
2018-09-19T17:53:35.771Z,5.43
2018-09-19T17:56:04.366Z,4.87
2018-09-19T17:58:32.939Z,5.03
2018-09-19T18:01:01.537Z,4.43
2018-09-19T18:03:30.131Z,4.63
2018-09-19T18:05:58.693Z,6.30
2018-09-19T18:08:27.251Z,4.90
2018-09-19T18:10:55.794Z,8.27
2018-09-19T18:13:24.353Z,4.20
2018-09-19T18:15:52.935Z,4.97
2018-09-19T18:18:21.689Z,6.10
2018-09-19T18:20:50.459Z,4.10
2018-09-19T18:23:19.118Z,6.17
2018-09-19T18:25:47.742Z,6.07
2018-09-19T18:28:16.400Z,6.67
2018-09-19T18:30:44.942Z,6.20
2018-09-19T18:33:13.650Z,7.43
2018-09-19T18:35:42.390Z,4.87
2018-09-19T18:38:10.897Z,4.70
2018-09-19T18:40:39.555Z,7.10
2018-09-19T18:43:08.306Z,6.70
2018-09-19T18:45:36.862Z,5.17
2018-09-19T18:48:05.497Z,7.70
2018-09-19T18:50:34.156Z,6.80
2018-09-19T18:53:02.718Z,5.93
2018-09-19T18:55:31.273Z,6.83
2018-09-19T18:57:59.816Z,11.63
2018-09-19T19:00:28.361Z,6.73
2018-09-19T19:02:56.882Z,6.77
2018-09-19T19:05:25.434Z,6.60
2018-09-19T19:07:54.079Z,7.77
2018-09-19T19:10:23.559Z,4.73
2018-09-19T19:12:52.305Z,6.47
2018-09-19T19:15:20.930Z,6.80
2018-09-19T19:17:49.490Z,9.27
2018-09-19T19:20:18.166Z,5.97
2018-09-19T19:22:46.718Z,6.70
2018-09-19T19:25:15.693Z,4.17
2018-09-19T19:27:44.233Z,6.67
2018-09-19T19:30:12.738Z,4.77
2018-09-19T19:32:42.338Z,5.93
2018-09-19T19:35:11.936Z,8.40
2018-09-19T19:37:40.975Z,8.73
2018-09-19T19:40:09.702Z,7.10
2018-09-19T19:42:38.266Z,5.63
2018-09-19T19:45:07.022Z,5.37
2018-09-19T19:47:37.742Z,7.67
2018-09-19T19:50:16.306Z,5.83
2018-09-19T19:52:44.781Z,5.67
2018-09-19T19:55:15.619Z,7.73
2018-09-19T20:00:26.054Z,6.83
2018-09-19T20:02:54.469Z,7.27
2018-09-19T20:05:39.062Z,5.70
2018-09-19T20:08:08.822Z,6.67
2018-09-19T20:10:37.584Z,6.40
2018-09-19T20:13:06.778Z,7.03
2018-09-19T20:15:35.218Z,6.20
2018-09-19T20:18:03.932Z,5.17
2018-09-19T20:20:32.565Z,7.47
2018-09-19T20:23:01.196Z,5.20
2018-09-19T20:25:29.845Z,7.83
2018-09-19T20:28:02.651Z,8.83
2018-09-19T20:30:31.246Z,4.80
2018-09-19T20:32:59.797Z,8.00
2018-09-19T20:35:28.463Z,8.23
2018-09-19T20:37:57.047Z,7.67
2018-09-19T20:40:25.711Z,7.57
2018-09-19T20:43:07.474Z,5.77
2018-09-19T20:45:36.028Z,10.97
2018-09-19T20:48:04.974Z,7.13
2018-09-19T20:50:33.865Z,5.57
2018-09-19T20:53:02.372Z,11.50
2018-09-19T20:55:30.889Z,5.53
2018-09-19T20:57:59.658Z,6.90
2018-09-19T21:00:28.063Z,6.47
2018-09-19T21:02:56.618Z,7.07
2018-09-19T21:05:25.026Z,5.47
2018-09-19T21:07:53.472Z,7.10
2018-09-19T21:10:21.914Z,8.40
2018-09-19T21:12:50.349Z,7.90
2018-09-19T21:15:18.786Z,6.13
2018-09-19T21:17:47.247Z,6.90
2018-09-19T21:20:15.669Z,6.20
2018-09-19T21:22:45.270Z,6.23
2018-09-19T21:25:13.656Z,6.23
2018-09-19T21:27:42.136Z,7.23
2018-09-19T21:30:10.698Z,7.63
2018-09-19T21:32:39.156Z,8.87
2018-09-19T21:35:07.594Z,6.97
2018-09-19T21:37:36.075Z,7.33
2018-09-19T21:40:04.685Z,8.67
2018-09-19T21:42:33.139Z,7.90
2018-09-19T21:45:06.727Z,6.57
2018-09-19T21:47:35.149Z,8.70
2018-09-19T21:50:03.629Z,6.43
2018-09-19T21:52:32.085Z,6.50
2018-09-19T21:55:00.693Z,7.47
2018-09-19T21:57:29.101Z,6.43
2018-09-19T21:59:57.541Z,6.93
2018-09-19T22:02:25.957Z,7.33
2018-09-19T22:04:54.352Z,6.33
2018-09-19T22:07:22.801Z,8.07
2018-09-19T22:09:51.210Z,7.13
2018-09-19T22:12:19.646Z,6.60
2018-09-19T22:14:48.068Z,7.80
2018-09-19T22:17:16.531Z,8.33
2018-09-19T22:19:45.437Z,10.03
2018-09-19T22:22:13.902Z,8.10
2018-09-19T22:24:42.297Z,7.30
2018-09-19T22:27:10.706Z,10.50
2018-09-19T22:29:39.244Z,8.30
2018-09-19T22:32:07.693Z,6.57
2018-09-19T22:34:36.142Z,6.73
2018-09-19T22:37:04.597Z,8.63
2018-09-19T22:39:33.383Z,9.10
2018-09-19T22:42:01.894Z,9.30
2018-09-19T22:44:30.293Z,6.37
2018-09-19T22:46:58.705Z,8.10
2018-09-19T22:49:27.102Z,8.17
2018-09-19T22:51:55.528Z,8.10
2018-09-19T22:54:23.977Z,9.97
2018-09-19T22:56:52.365Z,7.43
2018-09-19T22:59:20.777Z,6.50
2018-09-19T23:01:49.231Z,9.13
2018-09-19T23:04:18.447Z,6.63
2018-09-19T23:06:46.793Z,7.17
2018-09-19T23:09:15.221Z,8.40
2018-09-19T23:11:43.730Z,7.70
2018-09-19T23:14:12.166Z,6.80
2018-09-19T23:16:40.663Z,8.43
2018-09-19T23:19:09.126Z,7.43
2018-09-19T23:21:37.556Z,9.27
2018-09-19T23:24:06.002Z,6.50
2018-09-19T23:26:34.386Z,7.60
2018-09-19T23:29:02.809Z,9.07
2018-09-19T23:31:31.290Z,9.73
2018-09-19T23:33:59.713Z,8.70
2018-09-19T23:36:28.136Z,9.50
2018-09-19T23:38:56.586Z,9.63
2018-09-19T23:41:24.989Z,10.77
2018-09-19T23:43:53.409Z,9.13
2018-09-19T23:46:21.809Z,8.50
2018-09-19T23:48:50.230Z,6.87
2018-09-19T23:51:18.617Z,8.10
2018-09-19T23:53:47.100Z,7.77
2018-09-19T23:56:16.349Z,8.77
2018-09-19T23:58:44.773Z,10.80
